sensor_id;sensor_type;location;lat;lon;timestamp;temperature;humidity
57843;DHT22;43673;51.058;3.734;2023-07-13T00:00:06;17.30;99.90
57843;DHT22;43673;51.058;3.734;2023-07-13T00:02:35;17.20;99.90
57843;DHT22;43673;51.058;3.734;2023-07-13T00:05:01;17.20;99.90
57843;DHT22;43673;51.058;3.734;2023-07-13T00:07:27;17.10;99.90
57843;DHT22;43673;51.058;3.734;2023-07-13T00:09:52;17.20;99.90
57843;DHT22;43673;51.058;3.734;2023-07-13T00:12:26;17.20;99.90
57843;DHT22;43673;51.058;3.734;2023-07-13T00:14:53;17.10;99.90
57843;DHT22;43673;51.058;3.734;2023-07-13T00:17:18;17.20;99.90
57843;DHT22;43673;51.058;3.734;2023-07-13T00:19:44;17.10;99.90
57843;DHT22;43673;51.058;3.734;2023-07-13T00:22:11;17.10;99.90
57843;DHT22;43673;51.058;3.734;2023-07-13T00:24:37;17.10;99.90
57843;DHT22;43673;51.058;3.734;2023-07-13T00:27:08;17.10;99.90
57843;DHT22;43673;51.058;3.734;2023-07-13T00:29:34;17.10;99.90
57843;DHT22;43673;51.058;3.734;2023-07-13T00:32:00;17.00;99.90
57843;DHT22;43673;51.058;3.734;2023-07-13T00:34:25;17.00;99.90
57843;DHT22;43673;51.058;3.734;2023-07-13T00:36:51;17.00;99.90
57843;DHT22;43673;51.058;3.734;2023-07-13T00:39:17;17.00;99.90
57843;DHT22;43673;51.058;3.734;2023-07-13T00:41:43;17.00;99.90
57843;DHT22;43673;51.058;3.734;2023-07-13T00:44:14;17.00;99.90
57843;DHT22;43673;51.058;3.734;2023-07-13T00:46:41;17.00;99.90
57843;DHT22;43673;51.058;3.734;2023-07-13T00:49:18;17.00;99.90
57843;DHT22;43673;51.058;3.734;2023-07-13T00:52:07;17.00;99.90
57843;DHT22;43673;51.058;3.734;2023-07-13T00:54:45;16.90;99.90
57843;DHT22;43673;51.058;3.734;2023-07-13T00:57:15;16.80;99.90
57843;DHT22;43673;51.058;3.734;2023-07-13T00:59:43;16.80;99.90
57843;DHT22;43673;51.058;3.734;2023-07-13T01:02:10;16.80;99.90
57843;DHT22;43673;51.058;3.734;2023-07-13T01:04:36;16.80;99.90
57843;DHT22;43673;51.058;3.734;2023-07-13T01:07:04;16.80;99.90
57843;DHT22;43673;51.058;3.734;2023-07-13T01:09:30;16.80;99.90
57843;DHT22;43673;51.058;3.734;2023-07-13T01:11:56;16.80;99.90
57843;DHT22;43673;51.058;3.734;2023-07-13T01:14:22;16.80;99.90
57843;DHT22;43673;51.058;3.734;2023-07-13T01:16:48;16.80;99.90
57843;DHT22;43673;51.058;3.734;2023-07-13T01:19:44;16.80;99.90
57843;DHT22;43673;51.058;3.734;2023-07-13T01:22:20;16.70;99.90
57843;DHT22;43673;51.058;3.734;2023-07-13T01:24:50;16.70;99.90
57843;DHT22;43673;51.058;3.734;2023-07-13T01:27:20;16.70;99.90
57843;DHT22;43673;51.058;3.734;2023-07-13T01:29:46;16.70;99.90
57843;DHT22;43673;51.058;3.734;2023-07-13T01:32:20;16.70;99.90
57843;DHT22;43673;51.058;3.734;2023-07-13T01:34:47;16.70;99.90
57843;DHT22;43673;51.058;3.734;2023-07-13T01:37:13;16.70;99.90
57843;DHT22;43673;51.058;3.734;2023-07-13T01:39:38;16.70;99.90
57843;DHT22;43673;51.058;3.734;2023-07-13T01:42:04;16.70;99.90
57843;DHT22;43673;51.058;3.734;2023-07-13T01:44:30;16.70;99.90
57843;DHT22;43673;51.058;3.734;2023-07-13T01:46:56;16.60;99.90
57843;DHT22;43673;51.058;3.734;2023-07-13T01:49:22;16.60;99.90
57843;DHT22;43673;51.058;3.734;2023-07-13T01:51:47;16.70;99.90
57843;DHT22;43673;51.058;3.734;2023-07-13T01:54:13;16.70;99.90
57843;DHT22;43673;51.058;3.734;2023-07-13T01:56:39;16.70;99.90
57843;DHT22;43673;51.058;3.734;2023-07-13T01:59:07;16.70;99.90
57843;DHT22;43673;51.058;3.734;2023-07-13T02:01:33;16.70;99.90
57843;DHT22;43673;51.058;3.734;2023-07-13T02:03:59;16.70;99.90
57843;DHT22;43673;51.058;3.734;2023-07-13T02:06:25;16.60;99.90
57843;DHT22;43673;51.058;3.734;2023-07-13T02:08:50;16.60;99.90
57843;DHT22;43673;51.058;3.734;2023-07-13T02:11:16;16.70;99.90
57843;DHT22;43673;51.058;3.734;2023-07-13T02:13:43;16.70;99.90
57843;DHT22;43673;51.058;3.734;2023-07-13T02:16:08;16.80;99.90
57843;DHT22;43673;51.058;3.734;2023-07-13T02:18:34;16.90;99.90
57843;DHT22;43673;51.058;3.734;2023-07-13T02:21:00;16.90;99.90
57843;DHT22;43673;51.058;3.734;2023-07-13T02:23:26;16.90;99.90
57843;DHT22;43673;51.058;3.734;2023-07-13T02:26:00;17.00;99.90
57843;DHT22;43673;51.058;3.734;2023-07-13T02:28:28;16.90;99.90
57843;DHT22;43673;51.058;3.734;2023-07-13T02:30:53;16.90;99.90
57843;DHT22;43673;51.058;3.734;2023-07-13T02:33:19;16.80;99.90
57843;DHT22;43673;51.058;3.734;2023-07-13T02:35:47;16.80;99.90
57843;DHT22;43673;51.058;3.734;2023-07-13T02:38:13;16.70;99.90
57843;DHT22;43673;51.058;3.734;2023-07-13T02:40:39;16.60;99.90
57843;DHT22;43673;51.058;3.734;2023-07-13T02:43:05;16.60;99.90
57843;DHT22;43673;51.058;3.734;2023-07-13T02:45:31;16.60;99.90
57843;DHT22;43673;51.058;3.734;2023-07-13T02:47:57;16.70;99.90
57843;DHT22;43673;51.058;3.734;2023-07-13T02:50:22;16.60;99.90
57843;DHT22;43673;51.058;3.734;2023-07-13T02:52:48;16.50;99.90
57843;DHT22;43673;51.058;3.734;2023-07-13T02:55:14;16.50;99.90
57843;DHT22;43673;51.058;3.734;2023-07-13T02:57:39;16.50;99.90
57843;DHT22;43673;51.058;3.734;2023-07-13T03:00:06;16.50;99.90
57843;DHT22;43673;51.058;3.734;2023-07-13T03:02:34;16.40;99.90
57843;DHT22;43673;51.058;3.734;2023-07-13T03:05:00;16.50;99.90
57843;DHT22;43673;51.058;3.734;2023-07-13T03:07:26;16.50;99.90
57843;DHT22;43673;51.058;3.734;2023-07-13T03:09:58;16.50;99.90
57843;DHT22;43673;51.058;3.734;2023-07-13T03:12:24;16.50;99.90
57843;DHT22;43673;51.058;3.734;2023-07-13T03:14:50;16.50;99.90
57843;DHT22;43673;51.058;3.734;2023-07-13T03:17:16;16.50;99.90
57843;DHT22;43673;51.058;3.734;2023-07-13T03:19:42;16.50;99.90
57843;DHT22;43673;51.058;3.734;2023-07-13T03:22:09;16.50;99.90
57843;DHT22;43673;51.058;3.734;2023-07-13T03:24:35;16.50;99.90
57843;DHT22;43673;51.058;3.734;2023-07-13T03:27:04;16.60;99.90
57843;DHT22;43673;51.058;3.734;2023-07-13T03:29:30;16.60;99.90
57843;DHT22;43673;51.058;3.734;2023-07-13T03:31:56;16.60;99.90
57843;DHT22;43673;51.058;3.734;2023-07-13T03:34:22;16.70;99.90
57843;DHT22;43673;51.058;3.734;2023-07-13T03:36:48;16.80;99.90
57843;DHT22;43673;51.058;3.734;2023-07-13T03:39:13;16.80;99.90
57843;DHT22;43673;51.058;3.734;2023-07-13T03:41:39;16.80;99.90
57843;DHT22;43673;51.058;3.734;2023-07-13T03:44:05;16.80;99.90
57843;DHT22;43673;51.058;3.734;2023-07-13T03:46:31;16.80;99.90
57843;DHT22;43673;51.058;3.734;2023-07-13T03:48:57;16.70;99.90
57843;DHT22;43673;51.058;3.734;2023-07-13T03:51:23;16.70;99.90
57843;DHT22;43673;51.058;3.734;2023-07-13T03:53:49;16.70;99.90
57843;DHT22;43673;51.058;3.734;2023-07-13T03:56:17;16.80;99.90
57843;DHT22;43673;51.058;3.734;2023-07-13T03:58:45;16.70;99.90
57843;DHT22;43673;51.058;3.734;2023-07-13T04:01:12;16.80;99.90
57843;DHT22;43673;51.058;3.734;2023-07-13T04:03:38;16.80;99.90
57843;DHT22;43673;51.058;3.734;2023-07-13T04:06:06;17.00;99.90
57843;DHT22;43673;51.058;3.734;2023-07-13T04:08:34;17.00;99.90
57843;DHT22;43673;51.058;3.734;2023-07-13T04:11:02;17.10;99.90
57843;DHT22;43673;51.058;3.734;2023-07-13T04:13:28;17.10;99.90
57843;DHT22;43673;51.058;3.734;2023-07-13T04:15:54;17.10;99.90
57843;DHT22;43673;51.058;3.734;2023-07-13T04:18:20;17.20;99.90
57843;DHT22;43673;51.058;3.734;2023-07-13T04:20:47;17.30;99.90
57843;DHT22;43673;51.058;3.734;2023-07-13T04:23:13;17.40;99.90
57843;DHT22;43673;51.058;3.734;2023-07-13T04:25:39;17.50;99.90
57843;DHT22;43673;51.058;3.734;2023-07-13T04:28:06;17.50;99.90
57843;DHT22;43673;51.058;3.734;2023-07-13T04:30:32;17.50;99.90
57843;DHT22;43673;51.058;3.734;2023-07-13T04:32:58;17.50;99.90
57843;DHT22;43673;51.058;3.734;2023-07-13T04:35:23;17.50;99.90
57843;DHT22;43673;51.058;3.734;2023-07-13T04:37:50;17.60;99.90
57843;DHT22;43673;51.058;3.734;2023-07-13T04:40:20;17.60;99.90
57843;DHT22;43673;51.058;3.734;2023-07-13T04:42:46;17.50;99.90
57843;DHT22;43673;51.058;3.734;2023-07-13T04:45:13;17.50;99.90
57843;DHT22;43673;51.058;3.734;2023-07-13T04:47:40;17.50;99.90
57843;DHT22;43673;51.058;3.734;2023-07-13T04:50:08;17.60;99.90
57843;DHT22;43673;51.058;3.734;2023-07-13T04:52:34;17.60;99.90
57843;DHT22;43673;51.058;3.734;2023-07-13T04:55:00;17.60;99.90
57843;DHT22;43673;51.058;3.734;2023-07-13T04:57:26;17.70;99.90
57843;DHT22;43673;51.058;3.734;2023-07-13T04:59:53;17.70;99.90
57843;DHT22;43673;51.058;3.734;2023-07-13T05:02:20;17.70;99.90
57843;DHT22;43673;51.058;3.734;2023-07-13T05:04:47;17.80;99.90
57843;DHT22;43673;51.058;3.734;2023-07-13T05:07:13;17.70;99.90
57843;DHT22;43673;51.058;3.734;2023-07-13T05:09:39;17.80;99.90
57843;DHT22;43673;51.058;3.734;2023-07-13T05:12:07;17.90;99.90
57843;DHT22;43673;51.058;3.734;2023-07-13T05:14:32;18.00;99.90
57843;DHT22;43673;51.058;3.734;2023-07-13T05:16:58;18.10;99.90
57843;DHT22;43673;51.058;3.734;2023-07-13T05:19:24;18.20;99.90
57843;DHT22;43673;51.058;3.734;2023-07-13T05:21:50;18.30;99.90
57843;DHT22;43673;51.058;3.734;2023-07-13T05:24:16;18.60;99.90
57843;DHT22;43673;51.058;3.734;2023-07-13T05:26:42;18.70;99.90
57843;DHT22;43673;51.058;3.734;2023-07-13T05:29:07;18.80;99.90
57843;DHT22;43673;51.058;3.734;2023-07-13T05:31:33;18.90;99.90
57843;DHT22;43673;51.058;3.734;2023-07-13T05:33:59;18.90;99.90
57843;DHT22;43673;51.058;3.734;2023-07-13T05:36:25;19.00;99.90
57843;DHT22;43673;51.058;3.734;2023-07-13T05:38:51;19.10;99.90
57843;DHT22;43673;51.058;3.734;2023-07-13T05:41:16;19.10;99.90
57843;DHT22;43673;51.058;3.734;2023-07-13T05:43:42;19.20;99.90
57843;DHT22;43673;51.058;3.734;2023-07-13T05:46:08;19.50;99.90
57843;DHT22;43673;51.058;3.734;2023-07-13T05:48:34;19.60;99.90
57843;DHT22;43673;51.058;3.734;2023-07-13T05:51:00;19.90;99.90
57843;DHT22;43673;51.058;3.734;2023-07-13T05:53:26;20.00;99.90
57843;DHT22;43673;51.058;3.734;2023-07-13T05:55:54;20.00;99.90
57843;DHT22;43673;51.058;3.734;2023-07-13T05:58:21;20.00;99.90
57843;DHT22;43673;51.058;3.734;2023-07-13T06:00:47;20.00;99.90
57843;DHT22;43673;51.058;3.734;2023-07-13T06:03:15;20.00;99.90
57843;DHT22;43673;51.058;3.734;2023-07-13T06:05:41;20.00;99.90
57843;DHT22;43673;51.058;3.734;2023-07-13T06:08:07;20.20;99.90
57843;DHT22;43673;51.058;3.734;2023-07-13T06:10:34;20.10;99.90
57843;DHT22;43673;51.058;3.734;2023-07-13T06:13:01;20.30;99.90
57843;DHT22;43673;51.058;3.734;2023-07-13T06:15:27;20.40;99.90
57843;DHT22;43673;51.058;3.734;2023-07-13T06:17:53;20.70;99.90
57843;DHT22;43673;51.058;3.734;2023-07-13T06:20:18;20.60;99.90
57843;DHT22;43673;51.058;3.734;2023-07-13T06:22:44;20.80;99.90
57843;DHT22;43673;51.058;3.734;2023-07-13T06:25:11;21.00;99.90
57843;DHT22;43673;51.058;3.734;2023-07-13T06:27:36;20.80;99.90
57843;DHT22;43673;51.058;3.734;2023-07-13T06:30:02;20.80;99.90
57843;DHT22;43673;51.058;3.734;2023-07-13T06:32:29;21.00;99.90
57843;DHT22;43673;51.058;3.734;2023-07-13T06:34:54;21.20;99.90
57843;DHT22;43673;51.058;3.734;2023-07-13T06:37:20;21.90;99.90
57843;DHT22;43673;51.058;3.734;2023-07-13T06:39:46;21.60;99.90
57843;DHT22;43673;51.058;3.734;2023-07-13T06:42:12;21.80;99.90
57843;DHT22;43673;51.058;3.734;2023-07-13T06:44:38;22.10;99.90
57843;DHT22;43673;51.058;3.734;2023-07-13T06:47:05;23.30;99.90
57843;DHT22;43673;51.058;3.734;2023-07-13T06:49:31;25.00;99.90
57843;DHT22;43673;51.058;3.734;2023-07-13T06:51:57;25.80;99.90
57843;DHT22;43673;51.058;3.734;2023-07-13T06:54:23;25.80;99.90
57843;DHT22;43673;51.058;3.734;2023-07-13T06:56:49;25.80;99.90
57843;DHT22;43673;51.058;3.734;2023-07-13T06:59:14;25.10;99.90
57843;DHT22;43673;51.058;3.734;2023-07-13T07:01:40;24.70;99.90
57843;DHT22;43673;51.058;3.734;2023-07-13T07:04:06;24.10;99.90
57843;DHT22;43673;51.058;3.734;2023-07-13T07:06:32;24.80;99.90
57843;DHT22;43673;51.058;3.734;2023-07-13T07:08:58;25.90;99.90
57843;DHT22;43673;51.058;3.734;2023-07-13T07:11:25;26.10;99.90
57843;DHT22;43673;51.058;3.734;2023-07-13T07:13:52;26.50;99.90
57843;DHT22;43673;51.058;3.734;2023-07-13T07:16:19;28.20;99.90
57843;DHT22;43673;51.058;3.734;2023-07-13T07:18:46;29.30;99.90
57843;DHT22;43673;51.058;3.734;2023-07-13T07:21:12;31.00;97.40
57843;DHT22;43673;51.058;3.734;2023-07-13T07:23:38;31.30;94.20
57843;DHT22;43673;51.058;3.734;2023-07-13T07:26:04;31.50;93.30
57843;DHT22;43673;51.058;3.734;2023-07-13T07:28:30;31.40;92.90
57843;DHT22;43673;51.058;3.734;2023-07-13T07:30:57;32.30;91.40
57843;DHT22;43673;51.058;3.734;2023-07-13T07:33:25;32.10;90.00
57843;DHT22;43673;51.058;3.734;2023-07-13T07:35:52;31.90;90.00
57843;DHT22;43673;51.058;3.734;2023-07-13T07:38:21;31.90;88.50
57843;DHT22;43673;51.058;3.734;2023-07-13T07:40:47;31.40;89.10
57843;DHT22;43673;51.058;3.734;2023-07-13T07:43:13;31.00;88.50
57843;DHT22;43673;51.058;3.734;2023-07-13T07:45:39;30.60;89.90
57843;DHT22;43673;51.058;3.734;2023-07-13T07:48:06;29.60;90.80
57843;DHT22;43673;51.058;3.734;2023-07-13T07:50:32;28.80;91.70
57843;DHT22;43673;51.058;3.734;2023-07-13T07:52:59;28.40;92.20
57843;DHT22;43673;51.058;3.734;2023-07-13T07:55:25;28.00;93.20
57843;DHT22;43673;51.058;3.734;2023-07-13T07:57:54;28.50;92.80
57843;DHT22;43673;51.058;3.734;2023-07-13T08:00:20;28.90;92.50
57843;DHT22;43673;51.058;3.734;2023-07-13T08:02:46;28.10;93.10
57843;DHT22;43673;51.058;3.734;2023-07-13T08:05:12;27.30;93.90
57843;DHT22;43673;51.058;3.734;2023-07-13T08:07:40;26.70;95.10
57843;DHT22;43673;51.058;3.734;2023-07-13T08:10:07;26.80;95.60
57843;DHT22;43673;51.058;3.734;2023-07-13T08:12:40;28.30;94.10
57843;DHT22;43673;51.058;3.734;2023-07-13T08:15:10;29.00;93.30
57843;DHT22;43673;51.058;3.734;2023-07-13T08:17:36;29.90;91.60
57843;DHT22;43673;51.058;3.734;2023-07-13T08:20:02;30.00;90.80
57843;DHT22;43673;51.058;3.734;2023-07-13T08:22:28;29.30;91.30
57843;DHT22;43673;51.058;3.734;2023-07-13T08:24:54;28.50;92.30
57843;DHT22;43673;51.058;3.734;2023-07-13T08:27:23;28.10;93.00
57843;DHT22;43673;51.058;3.734;2023-07-13T08:29:49;27.50;94.20
57843;DHT22;43673;51.058;3.734;2023-07-13T08:32:15;27.30;94.00
57843;DHT22;43673;51.058;3.734;2023-07-13T08:34:42;26.80;94.80
57843;DHT22;43673;51.058;3.734;2023-07-13T08:37:08;28.10;93.90
57843;DHT22;43673;51.058;3.734;2023-07-13T08:39:34;29.30;92.00
57843;DHT22;43673;51.058;3.734;2023-07-13T08:42:28;29.70;91.20
57843;DHT22;43673;51.058;3.734;2023-07-13T08:45:13;30.20;90.80
57843;DHT22;43673;51.058;3.734;2023-07-13T08:50:34;32.30;83.00
57843;DHT22;43673;51.058;3.734;2023-07-13T08:53:02;33.50;78.50
57843;DHT22;43673;51.058;3.734;2023-07-13T08:55:31;32.10;79.00
57843;DHT22;43673;51.058;3.734;2023-07-13T08:58:09;32.90;78.10
57843;DHT22;43673;51.058;3.734;2023-07-13T09:01:03;32.50;77.50
57843;DHT22;43673;51.058;3.734;2023-07-13T09:04:27;31.60;78.10
57843;DHT22;43673;51.058;3.734;2023-07-13T09:15:38;32.70;76.10
57843;DHT22;43673;51.058;3.734;2023-07-13T09:21:10;33.70;70.80
57843;DHT22;43673;51.058;3.734;2023-07-13T09:23:38;34.50;68.20
57843;DHT22;43673;51.058;3.734;2023-07-13T09:26:20;35.00;66.80
57843;DHT22;43673;51.058;3.734;2023-07-13T09:28:50;34.50;66.00
57843;DHT22;43673;51.058;3.734;2023-07-13T09:31:24;35.10;65.60
57843;DHT22;43673;51.058;3.734;2023-07-13T09:33:51;36.20;63.00
57843;DHT22;43673;51.058;3.734;2023-07-13T09:36:32;36.00;63.60
57843;DHT22;43673;51.058;3.734;2023-07-13T09:39:14;37.10;60.60
57843;DHT22;43673;51.058;3.734;2023-07-13T09:44:34;35.40;62.00
57843;DHT22;43673;51.058;3.734;2023-07-13T09:47:01;35.60;60.60
57843;DHT22;43673;51.058;3.734;2023-07-13T09:49:34;36.10;60.50
57843;DHT22;43673;51.058;3.734;2023-07-13T09:52:12;37.00;59.50
57843;DHT22;43673;51.058;3.734;2023-07-13T09:54:39;37.40;58.50
57843;DHT22;43673;51.058;3.734;2023-07-13T09:57:14;37.80;58.10
57843;DHT22;43673;51.058;3.734;2023-07-13T09:59:43;37.90;57.60
57843;DHT22;43673;51.058;3.734;2023-07-13T10:02:28;39.20;55.40
57843;DHT22;43673;51.058;3.734;2023-07-13T10:05:03;36.80;56.70
57843;DHT22;43673;51.058;3.734;2023-07-13T10:07:31;37.40;57.10
57843;DHT22;43673;51.058;3.734;2023-07-13T10:09:59;37.40;56.10
57843;DHT22;43673;51.058;3.734;2023-07-13T10:12:27;35.80;56.40
57843;DHT22;43673;51.058;3.734;2023-07-13T10:14:58;35.30;57.60
57843;DHT22;43673;51.058;3.734;2023-07-13T10:17:32;33.80;58.70
57843;DHT22;43673;51.058;3.734;2023-07-13T10:20:04;33.20;60.50
57843;DHT22;43673;51.058;3.734;2023-07-13T10:22:43;32.60;63.10
57843;DHT22;43673;51.058;3.734;2023-07-13T10:25:19;34.10;59.90
57843;DHT22;43673;51.058;3.734;2023-07-13T10:27:49;33.60;60.50
57843;DHT22;43673;51.058;3.734;2023-07-13T10:32:49;32.10;62.60
57843;DHT22;43673;51.058;3.734;2023-07-13T10:35:17;31.20;64.00
57843;DHT22;43673;51.058;3.734;2023-07-13T10:37:54;30.80;64.90
57843;DHT22;43673;51.058;3.734;2023-07-13T10:43:04;27.80;68.40
57843;DHT22;43673;51.058;3.734;2023-07-13T10:45:36;27.30;71.30
57843;DHT22;43673;51.058;3.734;2023-07-13T10:48:04;27.00;73.30
57843;DHT22;43673;51.058;3.734;2023-07-13T10:50:32;26.00;82.20
57843;DHT22;43673;51.058;3.734;2023-07-13T10:53:15;25.10;90.10
57843;DHT22;43673;51.058;3.734;2023-07-13T10:58:44;23.40;99.90
57843;DHT22;43673;51.058;3.734;2023-07-13T11:01:15;22.50;99.90
57843;DHT22;43673;51.058;3.734;2023-07-13T11:03:50;21.70;99.90
57843;DHT22;43673;51.058;3.734;2023-07-13T11:06:38;21.20;99.90
57843;DHT22;43673;51.058;3.734;2023-07-13T11:09:32;21.10;99.90
57843;DHT22;43673;51.058;3.734;2023-07-13T11:12:00;21.10;99.90
57843;DHT22;43673;51.058;3.734;2023-07-13T11:14:42;21.20;99.90
57843;DHT22;43673;51.058;3.734;2023-07-13T11:20:20;21.70;99.90
57843;DHT22;43673;51.058;3.734;2023-07-13T11:25:30;21.90;99.90
57843;DHT22;43673;51.058;3.734;2023-07-13T11:36:17;22.50;99.90
57843;DHT22;43673;51.058;3.734;2023-07-13T11:39:11;22.40;99.90
57843;DHT22;43673;51.058;3.734;2023-07-13T11:41:54;22.70;99.90
57843;DHT22;43673;51.058;3.734;2023-07-13T11:44:24;23.20;99.90
57843;DHT22;43673;51.058;3.734;2023-07-13T11:46:53;23.70;99.90
57843;DHT22;43673;51.058;3.734;2023-07-13T11:49:22;24.00;99.90
57843;DHT22;43673;51.058;3.734;2023-07-13T11:51:49;24.40;99.90
57843;DHT22;43673;51.058;3.734;2023-07-13T11:54:27;24.50;99.90
57843;DHT22;43673;51.058;3.734;2023-07-13T11:57:02;25.00;99.90
57843;DHT22;43673;51.058;3.734;2023-07-13T11:59:36;25.00;99.90
57843;DHT22;43673;51.058;3.734;2023-07-13T12:04:43;26.10;99.90
57843;DHT22;43673;51.058;3.734;2023-07-13T12:10:18;25.90;99.90
57843;DHT22;43673;51.058;3.734;2023-07-13T12:13:08;25.40;99.90
57843;DHT22;43673;51.058;3.734;2023-07-13T12:19:02;25.50;99.90
57843;DHT22;43673;51.058;3.734;2023-07-13T12:31:50;26.40;99.90
57843;DHT22;43673;51.058;3.734;2023-07-13T12:34:20;26.70;99.90
57843;DHT22;43673;51.058;3.734;2023-07-13T12:37:01;26.60;99.90
57843;DHT22;43673;51.058;3.734;2023-07-13T12:39:36;26.90;99.90
57843;DHT22;43673;51.058;3.734;2023-07-13T12:42:19;27.10;99.90
57843;DHT22;43673;51.058;3.734;2023-07-13T12:44:49;27.40;99.90
57843;DHT22;43673;51.058;3.734;2023-07-13T12:47:15;27.20;99.90
57843;DHT22;43673;51.058;3.734;2023-07-13T12:49:47;26.80;99.90
57843;DHT22;43673;51.058;3.734;2023-07-13T12:52:50;26.60;99.90
57843;DHT22;43673;51.058;3.734;2023-07-13T12:55:15;26.80;99.90
57843;DHT22;43673;51.058;3.734;2023-07-13T12:57:54;26.20;99.90
57843;DHT22;43673;51.058;3.734;2023-07-13T13:00:36;26.20;99.90
57843;DHT22;43673;51.058;3.734;2023-07-13T13:06:02;26.30;99.90
57843;DHT22;43673;51.058;3.734;2023-07-13T13:08:30;26.50;99.90
57843;DHT22;43673;51.058;3.734;2023-07-13T13:10:55;26.30;99.90
57843;DHT22;43673;51.058;3.734;2023-07-13T13:13:22;26.40;99.90
57843;DHT22;43673;51.058;3.734;2023-07-13T13:15:50;26.60;99.90
57843;DHT22;43673;51.058;3.734;2023-07-13T13:18:20;26.30;99.50
57843;DHT22;43673;51.058;3.734;2023-07-13T13:20:50;26.10;99.90
57843;DHT22;43673;51.058;3.734;2023-07-13T13:23:19;26.20;99.90
57843;DHT22;43673;51.058;3.734;2023-07-13T13:25:49;26.10;96.60
57843;DHT22;43673;51.058;3.734;2023-07-13T13:28:18;26.10;96.40
57843;DHT22;43673;51.058;3.734;2023-07-13T13:30:45;26.10;95.10
57843;DHT22;43673;51.058;3.734;2023-07-13T13:33:14;26.00;95.30
57843;DHT22;43673;51.058;3.734;2023-07-13T13:35:41;26.30;95.10
57843;DHT22;43673;51.058;3.734;2023-07-13T13:38:19;26.20;94.90
57843;DHT22;43673;51.058;3.734;2023-07-13T13:40:45;26.40;95.70
57843;DHT22;43673;51.058;3.734;2023-07-13T13:43:26;26.50;94.10
57843;DHT22;43673;51.058;3.734;2023-07-13T13:45:54;26.70;93.60
57843;DHT22;43673;51.058;3.734;2023-07-13T13:48:33;26.50;93.30
57843;DHT22;43673;51.058;3.734;2023-07-13T13:51:03;26.40;92.90
57843;DHT22;43673;51.058;3.734;2023-07-13T13:53:29;26.20;93.20
57843;DHT22;43673;51.058;3.734;2023-07-13T13:55:55;26.10;93.00
57843;DHT22;43673;51.058;3.734;2023-07-13T13:58:20;26.00;93.00
57843;DHT22;43673;51.058;3.734;2023-07-13T14:00:48;26.00;92.50
57843;DHT22;43673;51.058;3.734;2023-07-13T14:03:19;25.90;92.60
57843;DHT22;43673;51.058;3.734;2023-07-13T14:05:46;25.90;92.90
57843;DHT22;43673;51.058;3.734;2023-07-13T14:08:17;26.00;92.20
57843;DHT22;43673;51.058;3.734;2023-07-13T14:10:50;26.30;91.90
57843;DHT22;43673;51.058;3.734;2023-07-13T14:13:21;26.30;92.30
57843;DHT22;43673;51.058;3.734;2023-07-13T14:15:48;26.40;92.00
57843;DHT22;43673;51.058;3.734;2023-07-13T14:18:14;26.10;91.60
57843;DHT22;43673;51.058;3.734;2023-07-13T14:20:44;25.70;92.00
57843;DHT22;43673;51.058;3.734;2023-07-13T14:23:12;25.60;92.10
57843;DHT22;43673;51.058;3.734;2023-07-13T14:25:38;25.50;91.40
57843;DHT22;43673;51.058;3.734;2023-07-13T14:28:24;25.50;91.70
57843;DHT22;43673;51.058;3.734;2023-07-13T14:30:51;25.50;91.20
57843;DHT22;43673;51.058;3.734;2023-07-13T14:33:18;25.50;91.70
57843;DHT22;43673;51.058;3.734;2023-07-13T14:35:43;25.60;91.80
57843;DHT22;43673;51.058;3.734;2023-07-13T14:38:18;25.60;91.50
57843;DHT22;43673;51.058;3.734;2023-07-13T14:40:45;25.40;91.70
57843;DHT22;43673;51.058;3.734;2023-07-13T14:43:16;25.50;92.10
57843;DHT22;43673;51.058;3.734;2023-07-13T14:45:48;25.40;92.00
57843;DHT22;43673;51.058;3.734;2023-07-13T14:48:21;25.20;91.50
57843;DHT22;43673;51.058;3.734;2023-07-13T14:50:54;25.30;92.10
57843;DHT22;43673;51.058;3.734;2023-07-13T14:53:21;25.30;91.40
57843;DHT22;43673;51.058;3.734;2023-07-13T14:55:47;25.50;91.30
57843;DHT22;43673;51.058;3.734;2023-07-13T14:58:13;25.70;91.30
57843;DHT22;43673;51.058;3.734;2023-07-13T15:00:40;25.70;91.00
57843;DHT22;43673;51.058;3.734;2023-07-13T15:03:18;25.70;90.70
57843;DHT22;43673;51.058;3.734;2023-07-13T15:05:47;25.60;90.70
57843;DHT22;43673;51.058;3.734;2023-07-13T15:08:13;25.20;91.20
57843;DHT22;43673;51.058;3.734;2023-07-13T15:10:39;25.20;91.70
57843;DHT22;43673;51.058;3.734;2023-07-13T15:13:15;25.10;91.90
57843;DHT22;43673;51.058;3.734;2023-07-13T15:15:49;25.10;92.30
57843;DHT22;43673;51.058;3.734;2023-07-13T15:18:20;25.20;92.30
57843;DHT22;43673;51.058;3.734;2023-07-13T15:20:48;25.30;92.10
57843;DHT22;43673;51.058;3.734;2023-07-13T15:23:16;25.50;92.00
57843;DHT22;43673;51.058;3.734;2023-07-13T15:25:43;25.50;91.80
57843;DHT22;43673;51.058;3.734;2023-07-13T15:28:10;25.60;91.60
57843;DHT22;43673;51.058;3.734;2023-07-13T15:30:45;25.80;91.90
57843;DHT22;43673;51.058;3.734;2023-07-13T15:33:39;26.00;91.30
57843;DHT22;43673;51.058;3.734;2023-07-13T15:36:07;26.40;90.80
57843;DHT22;43673;51.058;3.734;2023-07-13T15:38:35;26.30;89.20
57843;DHT22;43673;51.058;3.734;2023-07-13T15:41:14;26.10;89.10
57843;DHT22;43673;51.058;3.734;2023-07-13T15:43:41;26.10;89.50
57843;DHT22;43673;51.058;3.734;2023-07-13T15:46:12;26.20;88.30
57843;DHT22;43673;51.058;3.734;2023-07-13T15:48:39;26.30;87.40
57843;DHT22;43673;51.058;3.734;2023-07-13T15:51:10;26.40;85.90
57843;DHT22;43673;51.058;3.734;2023-07-13T15:53:38;26.40;84.40
57843;DHT22;43673;51.058;3.734;2023-07-13T15:56:23;26.20;83.20
57843;DHT22;43673;51.058;3.734;2023-07-13T15:58:50;26.10;83.30
57843;DHT22;43673;51.058;3.734;2023-07-13T16:01:16;26.10;84.00
57843;DHT22;43673;51.058;3.734;2023-07-13T16:03:42;26.00;84.70
57843;DHT22;43673;51.058;3.734;2023-07-13T16:06:23;25.70;85.50
57843;DHT22;43673;51.058;3.734;2023-07-13T16:08:51;25.50;86.40
57843;DHT22;43673;51.058;3.734;2023-07-13T16:11:32;25.50;86.10
57843;DHT22;43673;51.058;3.734;2023-07-13T16:13:59;25.50;86.80
57843;DHT22;43673;51.058;3.734;2023-07-13T16:16:30;25.40;87.60
57843;DHT22;43673;51.058;3.734;2023-07-13T16:18:58;25.50;87.50
57843;DHT22;43673;51.058;3.734;2023-07-13T16:21:31;25.70;88.20
57843;DHT22;43673;51.058;3.734;2023-07-13T16:23:58;25.60;87.70
57843;DHT22;43673;51.058;3.734;2023-07-13T16:26:37;25.50;85.90
57843;DHT22;43673;51.058;3.734;2023-07-13T16:29:16;25.30;86.80
57843;DHT22;43673;51.058;3.734;2023-07-13T16:31:58;25.10;86.60
57843;DHT22;43673;51.058;3.734;2023-07-13T16:34:25;25.10;87.10
57843;DHT22;43673;51.058;3.734;2023-07-13T16:36:52;25.20;87.90
57843;DHT22;43673;51.058;3.734;2023-07-13T16:39:17;24.90;88.40
57843;DHT22;43673;51.058;3.734;2023-07-13T16:41:44;24.80;89.00
57843;DHT22;43673;51.058;3.734;2023-07-13T16:44:18;24.70;89.80